createdAt,value
2022-11-17T00:00:32.966Z,5.57
2022-11-17T00:05:36.437Z,5.20
2022-11-17T00:10:40.995Z,7.28
2022-11-17T00:15:45.093Z,7.95
2022-11-17T00:21:05.197Z,7.20
2022-11-17T00:26:09.385Z,6.13
2022-11-17T00:31:30.925Z,6.35
2022-11-17T00:36:35.766Z,7.60
2022-11-17T00:41:40.001Z,10.27
2022-11-17T00:46:43.385Z,6.50
2022-11-17T00:51:46.204Z,6.75
2022-11-17T00:56:51.003Z,8.02
2022-11-17T01:01:53.857Z,8.50
2022-11-17T01:06:56.775Z,9.70
2022-11-17T01:12:00.973Z,9.40
2022-11-17T01:17:03.744Z,9.48
2022-11-17T01:22:06.794Z,9.07
2022-11-17T01:27:10.984Z,10.45
2022-11-17T01:32:13.833Z,9.68
2022-11-17T01:37:22.914Z,10.82
2022-11-17T01:42:28.020Z,8.75
2022-11-17T01:47:38.733Z,12.23
2022-11-17T01:52:42.584Z,8.27
2022-11-17T01:57:50.951Z,8.48
2022-11-17T02:02:54.470Z,12.00
2022-11-17T02:07:59.398Z,10.00
2022-11-17T02:13:04.253Z,8.57
2022-11-17T02:18:07.271Z,10.20
2022-11-17T02:23:44.850Z,11.80
2022-11-17T02:28:53.712Z,10.38
2022-11-17T02:34:03.317Z,9.07
2022-11-17T02:39:13.503Z,11.90
2022-11-17T02:44:24.249Z,9.05
2022-11-17T02:49:30.687Z,9.02
2022-11-17T02:54:34.445Z,10.85
2022-11-17T02:59:46.563Z,10.23
2022-11-17T03:05:05.411Z,9.50
2022-11-17T03:10:15.615Z,9.98
2022-11-17T03:15:25.081Z,8.45
2022-11-17T03:20:34.329Z,9.00
2022-11-17T03:25:39.366Z,9.23
2022-11-17T03:30:46.626Z,10.27
2022-11-17T03:35:56.016Z,10.50
2022-11-17T03:41:03.085Z,11.48
2022-11-17T03:46:11.437Z,9.02
2022-11-17T03:51:19.403Z,9.00
2022-11-17T03:56:35.459Z,9.05
2022-11-17T04:01:39.892Z,9.85
2022-11-17T04:06:42.891Z,10.32
2022-11-17T04:12:11.329Z,9.57
2022-11-17T04:17:15.557Z,9.32
2022-11-17T04:22:18.441Z,10.48
2022-11-17T04:27:38.511Z,10.25
2022-11-17T04:32:42.678Z,10.02
2022-11-17T04:37:45.595Z,10.40
2022-11-17T04:42:48.351Z,9.25
2022-11-17T04:47:52.609Z,8.23
2022-11-17T04:52:55.376Z,10.60
2022-11-17T04:57:58.205Z,7.97
2022-11-17T05:03:02.350Z,10.07
2022-11-17T05:08:05.330Z,8.50
2022-11-17T05:13:25.563Z,7.38
2022-11-17T05:18:29.700Z,13.00
2022-11-17T05:23:50.441Z,12.55
2022-11-17T05:28:53.500Z,12.45
2022-11-17T05:33:58.452Z,10.93
2022-11-17T05:39:01.593Z,12.73
2022-11-17T05:44:05.426Z,12.05
2022-11-17T05:49:09.623Z,13.00
2022-11-17T05:54:12.687Z,11.38
2022-11-17T05:59:26.328Z,10.98
2022-11-17T06:04:32.424Z,12.68
2022-11-17T06:09:38.283Z,13.80
2022-11-17T06:14:41.103Z,12.07
2022-11-17T06:19:50.850Z,12.55
2022-11-17T06:24:54.327Z,13.50
2022-11-17T06:29:59.172Z,14.20
2022-11-17T06:35:05.172Z,13.02
2022-11-17T06:40:09.938Z,15.20
2022-11-17T06:45:13.266Z,11.65
2022-11-17T06:50:18.144Z,16.00
2022-11-17T06:55:20.873Z,13.15
2022-11-17T07:00:23.653Z,13.45
2022-11-17T07:05:32.228Z,13.25
2022-11-17T07:10:36.448Z,14.48
2022-11-17T07:15:39.202Z,13.65
2022-11-17T07:20:45.389Z,14.55
2022-11-17T07:25:48.181Z,12.27
2022-11-17T07:30:51.000Z,10.38
2022-11-17T07:35:55.985Z,12.10
2022-11-17T07:40:58.857Z,14.68
2022-11-17T07:46:05.002Z,13.45
2022-11-17T07:51:09.684Z,11.75
2022-11-17T07:56:13.201Z,14.40
2022-11-17T08:01:20.354Z,13.00
2022-11-17T08:06:24.924Z,13.82
2022-11-17T08:11:27.811Z,13.20
2022-11-17T08:16:32.034Z,13.70
2022-11-17T08:21:37.796Z,13.10
2022-11-17T08:26:40.805Z,11.32
2022-11-17T08:31:46.124Z,12.18
2022-11-17T08:36:50.209Z,15.13
2022-11-17T08:41:53.216Z,10.50
2022-11-17T08:46:55.946Z,13.43
2022-11-17T08:52:00.043Z,14.40
2022-11-17T08:57:02.862Z,15.02
2022-11-17T09:02:06.524Z,13.05
2022-11-17T09:07:10.845Z,15.63
2022-11-17T09:12:13.772Z,14.05
2022-11-17T09:17:19.147Z,13.38
2022-11-17T09:22:23.272Z,16.38
2022-11-17T09:27:26.035Z,15.50
2022-11-17T09:32:28.859Z,15.48
2022-11-17T09:37:33.033Z,15.80
2022-11-17T09:42:40.950Z,13.85
2022-11-17T09:47:49.695Z,15.25
2022-11-17T09:53:03.111Z,15.15
2022-11-17T09:58:15.160Z,15.63
2022-11-17T10:03:20.972Z,15.32
2022-11-17T10:08:35.757Z,17.27
2022-11-17T10:13:39.166Z,15.88
2022-11-17T10:18:42.036Z,16.80
2022-11-17T10:23:52.021Z,17.02
2022-11-17T10:29:09.458Z,17.10
2022-11-17T10:34:13.402Z,17.23
2022-11-17T10:39:38.484Z,18.05
2022-11-17T10:44:43.871Z,17.92
2022-11-17T10:49:46.649Z,17.63
2022-11-17T10:54:50.780Z,17.08
2022-11-17T10:59:57.682Z,17.52
2022-11-17T11:05:08.068Z,17.90
2022-11-17T11:10:17.387Z,16.90
2022-11-17T11:15:22.498Z,17.67
2022-11-17T11:20:34.448Z,18.83
2022-11-17T11:25:47.451Z,17.98
2022-11-17T11:31:01.690Z,16.83
2022-11-17T11:36:32.781Z,18.42
2022-11-17T11:42:07.767Z,18.10
2022-11-17T11:47:26.193Z,15.27
2022-11-17T11:52:36.742Z,17.10
2022-11-17T11:57:49.503Z,17.20
2022-11-17T12:02:59.824Z,18.52
2022-11-17T12:08:10.964Z,20.65
2022-11-17T12:13:17.060Z,19.98
2022-11-17T12:18:31.897Z,17.70
2022-11-17T12:24:12.329Z,21.65
2022-11-17T12:29:32.504Z,18.83
2022-11-17T12:34:37.145Z,21.13
2022-11-17T12:40:02.607Z,20.50
2022-11-17T12:45:12.205Z,20.73
2022-11-17T12:51:04.438Z,17.02
2022-11-17T12:56:48.398Z,20.33
2022-11-17T13:02:01.999Z,18.40
2022-11-17T13:07:06.665Z,20.85
2022-11-17T13:12:12.038Z,20.13
2022-11-17T13:17:16.871Z,22.25
2022-11-17T13:22:19.964Z,20.55
2022-11-17T13:27:24.832Z,19.48
2022-11-17T13:32:31.727Z,21.98
2022-11-17T13:37:34.576Z,20.98
2022-11-17T13:42:37.795Z,20.42
2022-11-17T13:47:47.492Z,24.05
2022-11-17T13:52:54.837Z,20.42
2022-11-17T13:58:02.671Z,21.00
2022-11-17T14:03:27.395Z,20.63
2022-11-17T14:08:35.347Z,22.40
2022-11-17T14:13:49.018Z,20.83
2022-11-17T14:19:02.865Z,19.83
2022-11-17T14:24:13.338Z,22.13
2022-11-17T14:29:17.302Z,20.70
2022-11-17T14:34:21.534Z,21.02
2022-11-17T14:39:24.324Z,20.13
2022-11-17T14:44:27.186Z,19.65
2022-11-17T14:49:31.373Z,19.60
2022-11-17T14:54:34.173Z,22.73
2022-11-17T14:59:36.975Z,21.80
2022-11-17T15:04:51.568Z,19.05
2022-11-17T15:09:55.146Z,18.85
2022-11-17T15:14:58.279Z,21.33
2022-11-17T15:20:02.992Z,18.85
2022-11-17T15:25:06.583Z,22.75
2022-11-17T15:30:13.277Z,20.63
2022-11-17T15:35:17.626Z,19.83
2022-11-17T15:40:20.617Z,15.55
2022-11-17T15:45:23.447Z,18.15
2022-11-17T15:50:27.706Z,17.98
2022-11-17T15:55:30.988Z,19.77
2022-11-17T16:00:34.537Z,17.50
2022-11-17T16:05:41.888Z,18.02
2022-11-17T16:10:44.727Z,18.50
2022-11-17T16:15:48.981Z,18.08
2022-11-17T16:20:53.407Z,17.55
2022-11-17T16:25:56.343Z,18.50
2022-11-17T16:30:59.394Z,19.08
2022-11-17T16:36:06.977Z,17.02
2022-11-17T16:41:12.819Z,15.57
2022-11-17T16:46:18.384Z,16.23
2022-11-17T16:51:25.413Z,16.98
2022-11-17T16:56:28.219Z,14.40
2022-11-17T17:01:38.631Z,17.05
2022-11-17T17:06:46.417Z,17.15
2022-11-17T17:11:50.104Z,15.25
2022-11-17T17:16:53.003Z,17.08
2022-11-17T17:21:58.285Z,17.08
2022-11-17T17:27:03.337Z,18.20
2022-11-17T17:32:15.193Z,16.10
2022-11-17T17:37:21.986Z,17.40
2022-11-17T17:42:33.415Z,17.05
2022-11-17T17:47:36.261Z,18.77
2022-11-17T17:52:40.774Z,15.82
2022-11-17T17:57:44.986Z,19.55
2022-11-17T18:02:47.874Z,17.52
2022-11-17T18:07:52.131Z,17.67
2022-11-17T18:12:54.970Z,17.17
2022-11-17T18:17:57.965Z,15.55
2022-11-17T18:23:02.251Z,18.17
2022-11-17T18:34:22.319Z,15.63
2022-11-17T18:39:28.236Z,15.65
2022-11-17T18:44:31.609Z,17.67
2022-11-17T18:49:34.751Z,17.23
2022-11-17T18:54:39.156Z,18.38
2022-11-17T18:59:41.942Z,17.02
2022-11-17T19:04:44.711Z,16.50
2022-11-17T19:09:50.515Z,19.17
2022-11-17T19:14:53.437Z,18.98
2022-11-17T19:19:56.199Z,19.23
2022-11-17T19:25:00.740Z,18.65
2022-11-17T19:30:03.537Z,22.80
2022-11-17T19:35:15.690Z,17.98
2022-11-17T19:40:22.681Z,15.23
2022-11-17T19:45:32.977Z,16.45
2022-11-17T19:50:36.579Z,17.08
2022-11-17T19:55:40.764Z,14.40
2022-11-17T20:00:43.556Z,15.75
2022-11-17T20:05:46.326Z,14.32
2022-11-17T20:10:50.818Z,15.07
2022-11-17T20:15:57.158Z,17.25
2022-11-17T20:21:00.136Z,16.20
2022-11-17T20:26:09.375Z,16.90
2022-11-17T20:31:13.780Z,14.50
2022-11-17T20:36:20.455Z,14.30
2022-11-17T20:41:25.364Z,16.15
2022-11-17T20:46:28.594Z,15.07
2022-11-17T20:51:33.750Z,15.40
2022-11-17T20:56:37.904Z,14.65
2022-11-17T21:01:40.734Z,13.10
2022-11-17T21:06:59.465Z,12.90
2022-11-17T21:12:07.475Z,13.10
2022-11-17T21:17:30.668Z,17.98
2022-11-17T21:22:33.660Z,13.20
2022-11-17T21:27:37.853Z,16.27
2022-11-17T21:32:40.644Z,16.00
2022-11-17T21:37:43.472Z,12.68
2022-11-17T21:42:47.736Z,15.25
2022-11-17T21:47:53.917Z,16.55
2022-11-17T21:52:59.474Z,14.77
2022-11-17T21:58:04.072Z,17.85
2022-11-17T22:03:06.808Z,16.65
2022-11-17T22:08:09.699Z,14.57
2022-11-17T22:13:13.839Z,22.35
2022-11-17T22:18:16.722Z,18.35
2022-11-17T22:23:19.546Z,20.98
2022-11-17T22:28:24.526Z,18.98
2022-11-17T22:33:27.271Z,21.58
2022-11-17T22:38:31.796Z,21.20
2022-11-17T22:43:36.237Z,22.13
2022-11-17T22:48:39.384Z,23.02
2022-11-17T22:53:42.301Z,21.45
2022-11-17T22:58:50.053Z,22.17
2022-11-17T23:03:53.150Z,21.77
2022-11-17T23:08:58.016Z,21.10
2022-11-17T23:14:02.275Z,22.10
2022-11-17T23:19:05.573Z,23.85
2022-11-17T23:24:12.578Z,24.00
2022-11-17T23:29:16.937Z,20.52
2022-11-17T23:34:20.360Z,24.25
2022-11-17T23:39:23.135Z,20.45
2022-11-17T23:44:27.213Z,23.13
2022-11-17T23:49:30.318Z,23.48
2022-11-17T23:54:33.210Z,24.83
2022-11-17T23:59:37.352Z,20.77
